Time;durP1;ratioP1;P1;durP2;ratioP2;P2;SDS_P1;SDS_P2;PMS_P1;PMS_P2;Temp;Humidity;BMP_temperature;BMP_pressure;BME280_temperature;BME280_humidity;BME280_pressure;Samples;Min_cycle;Max_cycle;Signal;HPM_P1;HPM_P2
2022/08/07 00:00:11;;;;;;;8.45;3.25;;;16.20;99.90;;;;;;5052512;28;20223;-67
2022/08/07 00:02:37;;;;;;;8.13;2.75;;;16.10;99.90;;;;;;5052597;28;20208;-68
2022/08/07 00:05:03;;;;;;;7.63;3.10;;;16.10;99.90;;;;;;5052386;28;20663;-68
2022/08/07 00:07:29;;;;;;;8.70;3.00;;;16.00;99.90;;;;;;5052456;28;20174;-67
2022/08/07 00:09:55;;;;;;;11.80;3.15;;;16.00;99.90;;;;;;5051024;28;20268;-68
2022/08/07 00:12:20;;;;;;;7.97;3.03;;;15.90;99.90;;;;;;5052279;28;20227;-67
2022/08/07 00:14:46;;;;;;;8.63;3.33;;;15.90;99.90;;;;;;5052285;28;20710;-67
2022/08/07 00:17:12;;;;;;;4.68;2.72;;;15.90;99.90;;;;;;5051880;28;20173;-68
2022/08/07 00:19:37;;;;;;;6.85;2.70;;;15.90;99.90;;;;;;5052332;28;20222;-68
2022/08/07 00:22:03;;;;;;;5.78;2.30;;;15.80;99.90;;;;;;5052117;28;20251;-68
2022/08/07 00:24:29;;;;;;;6.28;3.53;;;15.80;99.90;;;;;;5051893;28;20520;-67
2022/08/07 00:26:55;;;;;;;11.73;4.40;;;15.70;99.90;;;;;;5052129;28;20174;-67
2022/08/07 00:29:24;;;;;;;5.75;3.25;;;15.70;99.90;;;;;;5052207;28;20181;-67
2022/08/07 00:31:55;;;;;;;9.23;2.88;;;15.70;99.90;;;;;;5051744;28;20220;-68
2022/08/07 00:34:21;;;;;;;8.20;3.30;;;15.60;99.90;;;;;;5051990;28;20177;-68
2022/08/07 00:36:47;;;;;;;7.10;4.00;;;15.60;99.90;;;;;;5051886;28;20184;-68
2022/08/07 00:39:12;;;;;;;7.10;3.28;;;15.60;99.90;;;;;;5051550;28;20295;-67
2022/08/07 00:41:38;;;;;;;5.47;3.03;;;15.60;99.90;;;;;;5051641;28;20231;-68
2022/08/07 00:44:04;;;;;;;7.22;2.92;;;15.60;99.90;;;;;;5051703;28;20547;-67
2022/08/07 00:46:30;;;;;;;7.32;2.75;;;15.70;99.90;;;;;;5051701;28;20165;-68
2022/08/07 00:49:00;;;;;;;6.95;2.13;;;15.70;99.90;;;;;;5050237;28;20555;-67
2022/08/07 00:51:28;;;;;;;5.40;2.70;;;15.70;99.90;;;;;;5051570;28;20311;-68
2022/08/07 00:53:53;;;;;;;9.43;2.65;;;15.80;99.90;;;;;;5051461;28;20162;-67
2022/08/07 00:56:20;;;;;;;8.63;2.33;;;15.80;99.90;;;;;;5049993;28;20549;-67
2022/08/07 00:58:46;;;;;;;4.80;2.25;;;15.80;99.90;;;;;;5051462;28;20165;-69
2022/08/07 01:01:12;;;;;;;5.22;2.42;;;15.70;99.90;;;;;;5051427;28;20178;-68
2022/08/07 01:03:38;;;;;;;8.27;2.10;;;15.70;99.90;;;;;;5051537;28;20306;-68
2022/08/07 01:06:04;;;;;;;5.22;2.20;;;15.70;99.90;;;;;;5051734;28;20233;-68
2022/08/07 01:08:30;;;;;;;9.60;1.80;;;15.70;99.90;;;;;;5051242;28;20201;-67
2022/08/07 01:10:56;;;;;;;4.32;1.77;;;15.60;99.90;;;;;;5051007;28;20240;-67
2022/08/07 01:13:22;;;;;;;3.67;1.92;;;15.60;99.90;;;;;;5051047;28;20520;-67
2022/08/07 01:15:49;;;;;;;7.72;1.83;;;15.60;99.90;;;;;;5051031;28;20620;-67
2022/08/07 01:18:15;;;;;;;8.80;1.55;;;15.60;99.90;;;;;;5051072;28;20161;-67
2022/08/07 01:20:52;;;;;;;3.70;1.60;;;15.50;99.90;;;;;;5050951;28;20667;-68
2022/08/07 01:23:18;;;;;;;5.45;1.92;;;15.50;99.90;;;;;;5050952;28;20716;-67
2022/08/07 01:25:45;;;;;;;3.75;1.90;;;15.50;99.90;;;;;;5051076;28;20173;-67
2022/08/07 01:28:10;;;;;;;4.38;1.75;;;15.50;99.90;;;;;;5050645;28;20204;-68
2022/08/07 01:30:37;;;;;;;5.68;1.80;;;15.50;99.90;;;;;;5050659;28;20212;-67
2022/08/07 01:33:03;;;;;;;4.63;1.55;;;15.60;99.90;;;;;;5049825;28;20173;-68
2022/08/07 01:35:29;;;;;;;8.23;1.75;;;15.60;99.90;;;;;;5049612;28;20651;-67
2022/08/07 01:37:56;;;;;;;3.67;1.50;;;15.60;99.90;;;;;;5050870;28;20173;-67
2022/08/07 01:40:23;;;;;;;3.30;1.40;;;15.20;99.90;;;;;;5050719;28;20188;-67
2022/08/07 01:42:49;;;;;;;7.10;1.70;;;15.50;99.90;;;;;;5051075;28;20229;-68
2022/08/07 01:45:15;;;;;;;5.35;1.40;;;15.50;99.90;;;;;;5051019;28;20173;-67
2022/08/07 01:47:41;;;;;;;6.55;1.55;;;15.40;99.90;;;;;;5050734;28;20188;-67
2022/08/07 01:50:07;;;;;;;8.85;1.50;;;15.30;99.90;;;;;;5050599;28;20303;-67
2022/08/07 01:52:35;;;;;;;3.10;1.50;;;15.40;99.90;;;;;;5049398;28;20200;-66
2022/08/07 01:55:02;;;;;;;3.33;1.70;;;15.40;99.90;;;;;;5050701;28;20166;-67
2022/08/07 01:57:31;;;;;;;3.10;1.50;;;15.30;99.90;;;;;;5050939;28;20173;-67
2022/08/07 02:00:02;;;;;;;3.58;1.48;;;15.30;99.90;;;;;;5050750;28;20188;-68
2022/08/07 02:02:34;;;;;;;7.10;2.03;;;15.30;99.90;;;;;;5050653;28;20478;-68
2022/08/07 02:05:07;;;;;;;4.05;1.65;;;15.20;99.90;;;;;;5049385;28;20172;-67
2022/08/07 02:07:48;;;;;;;3.17;1.40;;;15.20;99.90;;;;;;5050585;28;20655;-67
2022/08/07 02:10:16;;;;;;;4.75;1.50;;;15.10;99.90;;;;;;5050359;28;20667;-67
2022/08/07 02:12:44;;;;;;;4.30;1.45;;;15.00;99.90;;;;;;5050548;28;20632;-67
2022/08/07 02:15:11;;;;;;;5.05;1.70;;;15.00;99.90;;;;;;5050552;28;20235;-67
2022/08/07 02:17:39;;;;;;;5.20;1.52;;;14.90;99.90;;;;;;5050529;28;20266;-67
2022/08/07 02:20:08;;;;;;;4.97;1.85;;;14.90;99.90;;;;;;5050549;28;20231;-67
2022/08/07 02:22:36;;;;;;;2.42;1.30;;;14.90;99.90;;;;;;5049187;28;20663;-67
2022/08/07 02:25:08;;;;;;;2.95;1.42;;;14.90;99.90;;;;;;5050438;28;20166;-67
2022/08/07 02:27:35;;;;;;;8.00;1.50;;;14.90;99.90;;;;;;5050555;28;20161;-68
2022/08/07 02:30:03;;;;;;;5.22;1.20;;;14.90;99.90;;;;;;5050198;28;20238;-68
2022/08/07 02:32:29;;;;;;;5.05;1.20;;;14.80;99.90;;;;;;5050538;28;20251;-67
2022/08/07 02:34:57;;;;;;;6.57;1.45;;;14.90;99.90;;;;;;5050294;28;20191;-68
2022/08/07 02:37:25;;;;;;;4.65;1.45;;;14.90;99.90;;;;;;5050292;28;20177;-67
2022/08/07 02:39:52;;;;;;;7.53;1.33;;;15.00;99.90;;;;;;5050722;28;20213;-67
2022/08/07 02:42:19;;;;;;;6.60;1.40;;;15.00;99.90;;;;;;5054094;28;20252;-68
2022/08/07 02:44:49;;;;;;;4.50;1.42;;;14.90;99.90;;;;;;5053976;28;20157;-67
2022/08/07 02:47:16;;;;;;;3.15;1.20;;;14.90;99.90;;;;;;5054071;28;20547;-68
2022/08/07 02:49:43;;;;;;;5.68;1.40;;;14.90;99.90;;;;;;5054227;28;20174;-67
2022/08/07 02:52:14;;;;;;;4.93;1.52;;;14.90;99.90;;;;;;5053840;28;20213;-68
2022/08/07 02:54:42;;;;;;;5.90;1.25;;;14.80;99.90;;;;;;5053854;28;20173;-67
2022/08/07 02:57:12;;;;;;;6.55;1.38;;;14.90;99.90;;;;;;5053861;28;20264;-67
2022/08/07 02:59:44;;;;;;;5.80;1.58;;;14.80;99.90;;;;;;5053661;28;20181;-67
2022/08/07 03:02:11;;;;;;;3.38;1.10;;;14.80;99.90;;;;;;5053687;28;20223;-67
2022/08/07 03:04:39;;;;;;;4.20;1.52;;;14.80;99.90;;;;;;5053871;28;20187;-67
2022/08/07 03:07:06;;;;;;;6.90;1.30;;;14.70;99.90;;;;;;5053690;28;20169;-68
2022/08/07 03:09:32;;;;;;;5.20;1.30;;;14.60;99.90;;;;;;5053593;28;20165;-67
2022/08/07 03:11:59;;;;;;;9.38;1.70;;;14.50;99.90;;;;;;5053497;28;20215;-67
2022/08/07 03:14:26;;;;;;;8.20;1.48;;;14.40;99.90;;;;;;5053657;28;20173;-67
2022/08/07 03:16:51;;;;;;;4.82;1.30;;;14.40;99.90;;;;;;5053433;28;20193;-68
2022/08/07 03:19:17;;;;;;;6.65;1.67;;;14.30;99.90;;;;;;5053402;28;20169;-68
2022/08/07 03:21:43;;;;;;;4.60;1.40;;;14.30;99.90;;;;;;5053382;28;20210;-68
2022/08/07 03:24:08;;;;;;;4.80;1.27;;;14.40;99.90;;;;;;5053332;28;20170;-67
2022/08/07 03:26:36;;;;;;;2.85;1.50;;;14.40;99.90;;;;;;5052023;28;20538;-68
2022/08/07 03:29:05;;;;;;;4.28;1.48;;;14.40;99.90;;;;;;5053483;28;20177;-67
2022/08/07 03:31:32;;;;;;;4.82;1.30;;;14.30;99.90;;;;;;5053201;28;20303;-67
2022/08/07 03:34:02;;;;;;;3.35;1.60;;;14.30;99.90;;;;;;5053105;28;20165;-67
2022/08/07 03:36:29;;;;;;;4.82;1.48;;;14.30;99.90;;;;;;5053080;28;20702;-68
2022/08/07 03:39:00;;;;;;;6.72;1.92;;;14.30;99.90;;;;;;5052710;28;20709;-67
2022/08/07 03:41:28;;;;;;;6.65;1.55;;;14.20;99.90;;;;;;5052923;28;20683;-68
2022/08/07 03:43:54;;;;;;;2.85;1.30;;;14.20;99.90;;;;;;5053147;28;20173;-67
2022/08/07 03:46:22;;;;;;;4.47;1.52;;;14.20;99.90;;;;;;5052997;28;20294;-67
2022/08/07 03:48:48;;;;;;;6.55;1.90;;;14.20;99.90;;;;;;5052794;28;20177;-67
2022/08/07 03:51:14;;;;;;;6.15;1.70;;;14.20;99.90;;;;;;5052410;28;20213;-66
2022/08/07 03:53:40;;;;;;;6.75;1.40;;;14.20;99.90;;;;;;5051136;28;20622;-68
2022/08/07 03:56:09;;;;;;;4.88;1.50;;;14.20;99.90;;;;;;5052765;28;20174;-67
2022/08/07 03:58:35;;;;;;;5.85;1.65;;;14.10;99.90;;;;;;5052803;28;20651;-66
2022/08/07 04:01:03;;;;;;;4.40;1.52;;;14.10;99.90;;;;;;5052637;28;20575;-66
2022/08/07 04:03:28;;;;;;;3.75;1.50;;;14.00;99.90;;;;;;5052572;28;20668;-66
2022/08/07 04:05:54;;;;;;;4.38;1.30;;;14.00;99.90;;;;;;5052453;28;20182;-66
2022/08/07 04:08:20;;;;;;;3.65;1.50;;;13.90;99.90;;;;;;5052456;28;20177;-67
2022/08/07 04:10:50;;;;;;;3.25;1.30;;;13.80;99.90;;;;;;5052462;28;20201;-67
2022/08/07 04:13:17;;;;;;;2.80;1.58;;;12.60;99.90;;;;;;5052511;28;20176;-67
2022/08/07 04:15:43;;;;;;;6.32;1.60;;;13.50;99.90;;;;;;5052494;28;20165;-67
2022/08/07 04:18:14;;;;;;;9.18;1.77;;;13.40;99.90;;;;;;5052353;28;20201;-68
2022/08/07 04:20:41;;;;;;;4.47;1.80;;;13.30;99.90;;;;;;5052231;28;20169;-67
2022/08/07 04:23:08;;;;;;;3.70;1.70;;;13.30;99.90;;;;;;5052217;28;20303;-67
2022/08/07 04:25:37;;;;;;;9.77;1.58;;;13.30;99.90;;;;;;5052302;28;20176;-67
2022/08/07 04:28:05;;;;;;;2.55;1.50;;;13.40;99.90;;;;;;5052174;28;20256;-67
2022/08/07 04:30:32;;;;;;;3.65;1.60;;;13.40;99.90;;;;;;5052040;28;20594;-67
2022/08/07 04:32:59;;;;;;;4.45;1.90;;;13.50;99.90;;;;;;5052147;28;20262;-66
2022/08/07 04:35:25;;;;;;;5.05;1.65;;;13.50;99.90;;;;;;5051997;28;20173;-67
2022/08/07 04:37:51;;;;;;;3.17;1.65;;;13.50;99.90;;;;;;5052186;28;20195;-67
2022/08/07 04:40:16;;;;;;;5.07;1.75;;;13.50;99.90;;;;;;5051731;28;20764;-66
2022/08/07 04:42:42;;;;;;;4.63;1.90;;;13.50;99.90;;;;;;5051982;28;20173;-67
2022/08/07 04:45:10;;;;;;;5.35;1.60;;;13.50;99.90;;;;;;5051811;28;20173;-67
2022/08/07 04:47:36;;;;;;;4.97;1.83;;;13.50;99.90;;;;;;5051699;28;20181;-67
2022/08/07 04:50:09;;;;;;;3.20;1.45;;;13.40;99.90;;;;;;5051888;28;20231;-68
2022/08/07 04:52:34;;;;;;;5.35;2.00;;;13.40;99.90;;;;;;5051822;28;20190;-66
2022/08/07 04:55:12;;;;;;;6.95;1.50;;;13.30;99.90;;;;;;5051646;28;20169;-67
2022/08/07 04:58:01;;;;;;;8.57;1.80;;;13.20;99.90;;;;;;5051591;28;20168;-67
2022/08/07 05:00:36;;;;;;;4.25;1.92;;;13.30;99.90;;;;;;5051631;28;20175;-67
2022/08/07 05:03:17;;;;;;;5.45;1.83;;;13.30;99.90;;;;;;5050992;28;20165;-67
2022/08/07 05:05:59;;;;;;;5.35;2.00;;;13.40;99.90;;;;;;5051420;28;20200;-67
2022/08/07 05:08:31;;;;;;;6.35;2.00;;;13.40;99.90;;;;;;5051414;28;20183;-66
2022/08/07 05:11:23;;;;;;;9.27;1.80;;;13.40;99.90;;;;;;5051557;28;20246;-67
2022/08/07 05:13:56;;;;;;;5.30;1.50;;;13.30;99.90;;;;;;5051338;28;20169;-66
2022/08/07 05:16:24;;;;;;;6.32;1.67;;;13.20;99.90;;;;;;5051422;28;20196;-66
2022/08/07 05:18:55;;;;;;;4.82;2.00;;;13.10;99.90;;;;;;5051203;28;20166;-66
2022/08/07 05:21:25;;;;;;;4.68;1.80;;;13.20;99.90;;;;;;5051249;28;20639;-67
2022/08/07 05:23:57;;;;;;;3.00;1.58;;;13.10;99.90;;;;;;5051387;28;20181;-66
2022/08/07 05:26:25;;;;;;;3.03;1.60;;;13.10;99.90;;;;;;5051159;28;20207;-67
2022/08/07 05:28:53;;;;;;;3.50;1.73;;;13.10;99.90;;;;;;5051254;28;20204;-67
2022/08/07 05:31:22;;;;;;;5.40;1.42;;;13.10;99.90;;;;;;5049764;28;20209;-67
2022/08/07 05:33:50;;;;;;;5.90;2.33;;;13.10;99.90;;;;;;5050969;28;20170;-66
2022/08/07 05:36:18;;;;;;;6.22;1.75;;;13.10;99.90;;;;;;5050928;28;20172;-67
2022/08/07 05:38:44;;;;;;;2.95;1.75;;;13.10;99.90;;;;;;5050872;28;20734;-66
2022/08/07 05:41:11;;;;;;;4.65;1.95;;;13.00;99.90;;;;;;5050981;28;20193;-67
2022/08/07 05:43:38;;;;;;;6.50;1.48;;;13.10;99.90;;;;;;5050989;28;20231;-67
2022/08/07 05:46:04;;;;;;;4.00;1.58;;;13.10;99.90;;;;;;5050896;28;20181;-66
2022/08/07 05:48:30;;;;;;;4.10;1.90;;;13.20;99.90;;;;;;5050894;28;20165;-67
2022/08/07 05:50:58;;;;;;;2.17;1.70;;;13.20;99.90;;;;;;5050828;28;20216;-67
2022/08/07 05:53:23;;;;;;;3.88;1.70;;;13.20;99.90;;;;;;5050857;28;20640;-67
2022/08/07 05:55:51;;;;;;;5.30;1.80;;;13.30;99.90;;;;;;5050883;28;20185;-68
2022/08/07 05:58:17;;;;;;;9.75;1.80;;;13.40;99.90;;;;;;5051186;28;20244;-67
2022/08/07 06:00:45;;;;;;;3.55;1.73;;;13.40;99.90;;;;;;5050622;28;20169;-68
2022/08/07 06:03:13;;;;;;;9.35;1.90;;;13.50;99.90;;;;;;5050734;28;20165;-68
2022/08/07 06:05:39;;;;;;;4.28;1.70;;;13.50;99.90;;;;;;5050718;28;20215;-67
2022/08/07 06:08:06;;;;;;;5.53;2.03;;;13.60;99.90;;;;;;5050827;28;20205;-67
2022/08/07 06:10:32;;;;;;;4.80;2.00;;;13.60;99.90;;;;;;5050656;28;20195;-68
2022/08/07 06:12:59;;;;;;;7.07;2.08;;;13.60;99.90;;;;;;5050558;28;20189;-66
2022/08/07 06:15:26;;;;;;;5.20;1.75;;;13.70;99.90;;;;;;5052274;28;20184;-67
2022/08/07 06:17:53;;;;;;;5.65;1.60;;;13.70;99.90;;;;;;5054676;28;20239;-68
2022/08/07 06:20:19;;;;;;;3.83;1.52;;;13.80;99.90;;;;;;5054788;28;20246;-66
2022/08/07 06:22:47;;;;;;;5.88;1.95;;;13.90;99.90;;;;;;5054556;28;20181;-68
2022/08/07 06:25:12;;;;;;;6.35;1.90;;;13.90;99.90;;;;;;5054558;28;20169;-67
2022/08/07 06:27:38;;;;;;;4.80;1.65;;;14.00;99.90;;;;;;5054459;28;20173;-67
2022/08/07 06:30:04;;;;;;;7.93;1.75;;;14.10;99.90;;;;;;5054335;28;20705;-67
2022/08/07 06:32:30;;;;;;;8.95;2.13;;;14.20;99.90;;;;;;5054318;28;20200;-68
2022/08/07 06:34:56;;;;;;;6.30;1.70;;;14.30;99.90;;;;;;5054314;28;20244;-67
2022/08/07 06:37:21;;;;;;;5.38;1.67;;;14.40;99.90;;;;;;5054299;28;20656;-65
2022/08/07 06:39:47;;;;;;;6.70;1.80;;;14.40;99.90;;;;;;5053962;28;20225;-65
2022/08/07 06:42:36;;;;;;;2.63;1.42;;;14.50;99.90;;;;;;5054161;28;20180;-65
2022/08/07 06:45:05;;;;;;;4.18;1.67;;;14.70;99.90;;;;;;5054335;28;20181;-66
2022/08/07 06:47:30;;;;;;;7.88;2.15;;;14.80;99.90;;;;;;5053868;28;20239;-65
2022/08/07 06:49:56;;;;;;;5.53;1.70;;;14.90;99.90;;;;;;5054084;28;20169;-66
2022/08/07 06:52:23;;;;;;;5.53;1.90;;;15.00;99.90;;;;;;5053841;28;20262;-65
2022/08/07 06:54:51;;;;;;;6.10;2.10;;;15.10;99.90;;;;;;5053854;28;20165;-66
2022/08/07 06:57:19;;;;;;;8.35;2.38;;;15.20;99.90;;;;;;5054183;28;20173;-65
2022/08/07 06:59:45;;;;;;;9.32;2.20;;;15.20;99.90;;;;;;5053935;28;20188;-65
2022/08/07 07:02:18;;;;;;;8.13;2.28;;;15.30;99.90;;;;;;5053999;28;20246;-65
2022/08/07 07:04:45;;;;;;;6.32;1.90;;;15.40;99.90;;;;;;5053828;28;20667;-66
2022/08/07 07:07:10;;;;;;;7.63;2.20;;;15.50;99.90;;;;;;5053800;28;20170;-66
2022/08/07 07:09:39;;;;;;;7.85;2.00;;;15.60;99.90;;;;;;5053636;28;20181;-66
2022/08/07 07:12:05;;;;;;;5.60;1.73;;;15.70;99.90;;;;;;5053633;28;20204;-66
2022/08/07 07:14:40;;;;;;;9.43;2.08;;;15.80;99.90;;;;;;5053590;28;20177;-65
2022/08/07 07:17:11;;;;;;;4.35;1.88;;;15.90;99.90;;;;;;5053537;28;20181;-65
2022/08/07 07:19:51;;;;;;;3.05;1.70;;;15.90;99.90;;;;;;5053512;28;20181;-65
2022/08/07 07:22:18;;;;;;;4.55;2.22;;;16.00;99.90;;;;;;5053465;28;20177;-66
2022/08/07 07:24:46;;;;;;;9.68;1.80;;;16.10;99.90;;;;;;5053669;28;20331;-66
2022/08/07 07:27:15;;;;;;;4.93;1.90;;;16.20;99.90;;;;;;5051192;28;20199;-66
2022/08/07 07:29:46;;;;;;;8.25;1.83;;;16.20;99.90;;;;;;5053434;28;20173;-66
2022/08/07 07:32:15;;;;;;;3.63;1.42;;;16.40;99.90;;;;;;5053135;28;20220;-65
2022/08/07 07:34:46;;;;;;;3.78;1.48;;;16.50;99.90;;;;;;5053267;28;20589;-66
2022/08/07 07:37:15;;;;;;;3.10;1.33;;;16.60;99.90;;;;;;5053106;28;20231;-65
2022/08/07 07:39:43;;;;;;;4.05;1.08;;;16.70;99.90;;;;;;5053005;28;20217;-66
2022/08/07 07:42:10;;;;;;;2.88;1.20;;;16.80;99.90;;;;;;5053077;28;20171;-66
2022/08/07 07:44:40;;;;;;;3.13;1.38;;;16.90;99.90;;;;;;5053064;28;20181;-65
2022/08/07 07:47:07;;;;;;;3.45;1.23;;;17.00;99.90;;;;;;5053003;28;20662;-66
2022/08/07 07:49:36;;;;;;;4.00;1.65;;;17.10;99.90;;;;;;5052826;28;20216;-65
2022/08/07 07:52:03;;;;;;;4.32;1.80;;;17.10;99.90;;;;;;5052844;28;20223;-66
2022/08/07 07:54:30;;;;;;;4.03;1.50;;;17.20;99.90;;;;;;5052668;28;20674;-65
2022/08/07 07:56:57;;;;;;;1.67;1.08;;;17.30;99.90;;;;;;5052739;28;20589;-66
2022/08/07 07:59:25;;;;;;;2.45;1.33;;;17.40;99.90;;;;;;5052724;28;20161;-65
2022/08/07 08:01:52;;;;;;;7.80;1.17;;;17.60;99.90;;;;;;5052585;28;20256;-65
2022/08/07 08:04:19;;;;;;;1.98;1.00;;;17.80;99.90;;;;;;5052651;28;20683;-65
2022/08/07 08:06:46;;;;;;;5.00;1.10;;;18.00;99.90;;;;;;5052607;28;20492;-65
2022/08/07 08:09:15;;;;;;;4.70;0.98;;;18.20;99.90;;;;;;5052673;28;20169;-65
2022/08/07 08:11:42;;;;;;;2.38;1.05;;;18.30;99.90;;;;;;5052377;28;20204;-64
2022/08/07 08:14:08;;;;;;;7.95;1.10;;;18.40;99.90;;;;;;5052752;28;20318;-64
2022/08/07 08:16:38;;;;;;;2.55;0.98;;;18.50;99.90;;;;;;5052596;28;20602;-65
2022/08/07 08:19:08;;;;;;;2.60;1.00;;;18.60;99.90;;;;;;5052305;28;20187;-65
2022/08/07 08:27:13;;;;;;;2.55;1.10;;;19.10;99.90;;;;;;5052226;28;20258;-65
2022/08/07 08:30:00;;;;;;;3.17;0.90;;;19.40;99.90;;;;;;5052060;28;20177;-65
2022/08/07 08:32:30;;;;;;;2.95;1.05;;;19.80;99.90;;;;;;5052161;28;20188;-65
2022/08/07 08:34:57;;;;;;;3.28;1.17;;;21.30;99.90;;;;;;5051994;28;20524;-65
2022/08/07 08:37:26;;;;;;;2.92;0.77;;;22.60;99.90;;;;;;5051681;28;20184;-65
2022/08/07 08:39:53;;;;;;;5.28;0.95;;;23.40;99.90;;;;;;5052031;28;20219;-65
2022/08/07 08:42:38;;;;;;;2.30;0.80;;;24.10;99.90;;;;;;5051748;28;20201;-66
2022/08/07 08:45:17;;;;;;;3.70;0.80;;;25.00;99.90;;;;;;5051845;28;20675;-65
2022/08/07 08:47:51;;;;;;;4.38;1.15;;;25.60;99.90;;;;;;5051711;28;20180;-65
2022/08/07 08:50:29;;;;;;;3.10;1.10;;;26.30;99.90;;;;;;5051621;28;20188;-66
2022/08/07 08:53:10;;;;;;;2.83;0.80;;;26.60;99.90;;;;;;5051756;28;20165;-66
2022/08/07 08:55:43;;;;;;;4.20;0.80;;;27.40;99.90;;;;;;5051419;28;20173;-65
2022/08/07 08:58:43;;;;;;;5.43;0.90;;;26.90;99.90;;;;;;5051636;28;20173;-66
2022/08/07 09:01:24;;;;;;;2.67;0.80;;;26.80;99.90;;;;;;5051684;28;20173;-66
2022/08/07 09:04:15;;;;;;;3.80;0.90;;;26.50;99.90;;;;;;5051500;28;20177;-66
2022/08/07 09:06:54;;;;;;;2.38;0.90;;;26.30;99.90;;;;;;5051636;28;20199;-66
2022/08/07 09:09:55;;;;;;;2.90;0.88;;;24.50;99.90;;;;;;5051446;28;20197;-65
2022/08/07 09:12:50;;;;;;;1.63;0.70;;;23.60;99.90;;;;;;5051261;28;20200;-65
2022/08/07 09:15:53;;;;;;;2.92;1.08;;;24.00;99.90;;;;;;5051300;28;20173;-65
2022/08/07 09:18:44;;;;;;;4.63;1.20;;;24.30;99.90;;;;;;5051310;28;20188;-65
2022/08/07 09:21:21;;;;;;;2.30;1.00;;;24.60;99.90;;;;;;5051392;28;20176;-66
2022/08/07 09:24:10;;;;;;;3.35;0.80;;;24.30;99.90;;;;;;5051211;28;20648;-65
2022/08/07 09:26:55;;;;;;;2.45;0.98;;;24.80;99.90;;;;;;5050823;28;20181;-66
2022/08/07 09:29:25;;;;;;;3.83;1.10;;;24.90;99.90;;;;;;5051208;28;20185;-65
2022/08/07 09:32:05;;;;;;;3.88;1.33;;;24.60;99.90;;;;;;5051005;28;20343;-66
2022/08/07 09:35:07;;;;;;;3.90;0.90;;;24.60;99.90;;;;;;5051255;28;20157;-66
2022/08/07 09:38:13;;;;;;;2.00;0.90;;;24.70;99.90;;;;;;5050955;28;20176;-66
2022/08/07 09:40:52;;;;;;;3.30;1.08;;;24.90;99.90;;;;;;5049936;28;20220;-66
2022/08/07 09:43:39;;;;;;;5.18;1.10;;;25.30;99.90;;;;;;5050834;28;20212;-65
2022/08/07 09:46:32;;;;;;;3.40;1.08;;;25.40;99.90;;;;;;5050749;28;20196;-65
2022/08/07 09:49:11;;;;;;;6.07;1.15;;;25.30;99.90;;;;;;5050631;28;20192;-66
2022/08/07 09:51:43;;;;;;;4.10;1.30;;;25.70;99.90;;;;;;5050318;28;20217;-65
2022/08/07 09:54:16;;;;;;;4.38;1.30;;;25.80;99.90;;;;;;5050708;28;20241;-66
2022/08/07 09:57:06;;;;;;;3.08;1.17;;;26.00;99.90;;;;;;5050867;28;20177;-65
2022/08/07 09:59:50;;;;;;;3.35;1.38;;;25.90;99.90;;;;;;5050616;28;20180;-65
2022/08/07 10:02:36;;;;;;;6.03;1.27;;;25.80;99.90;;;;;;5050548;28;20310;-65
2022/08/07 10:05:24;;;;;;;4.50;1.30;;;25.80;99.90;;;;;;5049940;28;20239;-66
2022/08/07 10:08:31;;;;;;;4.25;1.13;;;26.10;99.90;;;;;;5050534;28;20188;-65
2022/08/07 10:11:09;;;;;;;4.80;1.30;;;26.30;99.90;;;;;;5050497;28;20303;-65
2022/08/07 10:13:52;;;;;;;3.65;1.30;;;26.40;99.90;;;;;;5050831;28;20177;-65
2022/08/07 10:16:36;;;;;;;3.45;1.25;;;25.70;99.90;;;;;;5050503;28;20165;-65
2022/08/07 10:19:11;;;;;;;4.18;0.80;;;26.10;99.90;;;;;;5050322;28;20197;-65
2022/08/07 10:21:52;;;;;;;4.88;1.20;;;26.50;99.90;;;;;;5050575;28;20177;-66
2022/08/07 10:24:49;;;;;;;3.58;1.20;;;26.80;99.90;;;;;;5050494;28;20166;-65
2022/08/07 10:27:43;;;;;;;4.18;1.00;;;27.30;99.90;;;;;;5050746;28;20173;-65
2022/08/07 10:30:16;;;;;;;3.92;1.20;;;27.50;99.90;;;;;;5050172;28;20180;-65
2022/08/07 10:33:03;;;;;;;5.15;1.35;;;27.70;99.90;;;;;;5050443;28;20191;-65
2022/08/07 10:35:28;;;;;;;4.95;1.00;;;28.00;99.90;;;;;;5050225;28;20227;-65
2022/08/07 10:38:04;;;;;;;3.72;1.25;;;28.40;99.90;;;;;;5050290;28;20261;-65
2022/08/07 10:40:54;;;;;;;6.10;1.20;;;28.70;99.90;;;;;;5050191;28;20307;-65
2022/08/07 10:43:29;;;;;;;5.80;1.05;;;28.90;99.90;;;;;;5050271;28;20249;-65
2022/08/07 10:45:58;;;;;;;6.00;1.40;;;29.30;99.90;;;;;;5050197;28;20180;-65
2022/08/07 10:48:39;;;;;;;5.47;1.20;;;29.50;99.90;;;;;;5050441;28;20177;-65
2022/08/07 10:51:34;;;;;;;5.25;1.08;;;29.60;99.90;;;;;;5050244;28;20209;-65
2022/08/07 10:54:27;;;;;;;4.82;1.33;;;29.00;99.90;;;;;;5049650;28;20274;-65
2022/08/07 10:57:11;;;;;;;8.43;1.52;;;29.70;99.90;;;;;;5048891;28;20189;-65
2022/08/07 10:59:52;;;;;;;4.03;1.23;;;29.60;99.90;;;;;;5050151;28;20169;-65
2022/08/07 11:02:22;;;;;;;4.07;1.63;;;30.20;99.90;;;;;;5053089;28;20165;-65
2022/08/07 11:05:05;;;;;;;3.33;1.30;;;30.60;99.90;;;;;;5053540;28;20691;-65
2022/08/07 11:07:39;;;;;;;3.47;1.25;;;30.80;99.90;;;;;;5053668;28;20513;-65
2022/08/07 11:10:26;;;;;;;6.32;1.40;;;30.80;99.90;;;;;;5053465;28;20658;-65
2022/08/07 11:13:31;;;;;;;3.55;1.40;;;30.80;99.90;;;;;;5052163;28;20590;-65
2022/08/07 11:16:08;;;;;;;5.13;1.40;;;31.00;99.90;;;;;;5052539;28;20173;-65
2022/08/07 11:18:57;;;;;;;4.00;1.38;;;31.10;99.90;;;;;;5053544;28;20169;-65
2022/08/07 11:21:35;;;;;;;2.10;1.20;;;31.40;99.90;;;;;;5053881;28;20330;-64
2022/08/07 11:24:19;;;;;;;3.47;1.27;;;30.10;99.90;;;;;;5053503;28;20192;-65
2022/08/07 11:27:08;;;;;;;5.85;1.48;;;29.30;99.90;;;;;;5053197;28;20184;-66
2022/08/07 11:30:03;;;;;;;4.13;1.25;;;30.90;99.90;;;;;;5053046;28;20560;-66
2022/08/07 11:32:32;;;;;;;7.43;1.30;;;31.40;99.90;;;;;;5052715;28;20221;-66
2022/08/07 11:35:02;;;;;;;4.80;1.05;;;31.90;99.90;;;;;;5053001;28;20575;-65
2022/08/07 11:37:47;;;;;;;7.60;1.40;;;31.30;99.90;;;;;;5052975;28;20172;-66
2022/08/07 11:40:30;;;;;;;3.25;1.10;;;32.10;99.90;;;;;;5052835;28;20274;-65
2022/08/07 11:43:21;;;;;;;8.60;1.50;;;32.70;99.90;;;;;;5052883;28;20169;-66
2022/08/07 11:46:01;;;;;;;7.68;1.33;;;32.40;99.90;;;;;;5052883;28;20169;-66
2022/08/07 11:48:40;;;;;;;6.35;1.63;;;32.40;99.90;;;;;;5052687;28;20168;-66
2022/08/07 11:51:49;;;;;;;5.63;1.20;;;32.20;99.90;;;;;;5052928;28;20220;-66
2022/08/07 11:54:45;;;;;;;5.72;1.50;;;32.50;99.90;;;;;;5052463;28;20319;-66
2022/08/07 11:57:21;;;;;;;6.35;1.40;;;32.30;99.90;;;;;;5052892;28;20199;-65
2022/08/07 12:00:09;;;;;;;6.82;1.60;;;31.90;99.90;;;;;;5052505;28;20188;-66
2022/08/07 12:02:52;;;;;;;3.40;1.27;;;32.50;99.90;;;;;;5052590;28;20168;-66
2022/08/07 12:05:55;;;;;;;4.10;1.30;;;32.70;99.90;;;;;;5052245;28;20243;-65
2022/08/07 12:08:33;;;;;;;3.20;1.20;;;33.10;99.90;;;;;;5052451;28;20741;-65
2022/08/07 12:11:20;;;;;;;5.30;1.10;;;32.90;99.90;;;;;;5052216;28;20247;-65
2022/08/07 12:13:55;;;;;;;4.75;1.20;;;33.20;99.90;;;;;;5051915;28;20171;-66
2022/08/07 12:16:39;;;;;;;2.63;1.08;;;32.90;99.90;;;;;;5051068;28;20172;-65
2022/08/07 12:19:26;;;;;;;1.73;0.90;;;32.50;99.90;;;;;;5052320;28;20168;-65
2022/08/07 12:21:57;;;;;;;5.13;1.52;;;33.50;99.90;;;;;;5052151;28;20172;-65
2022/08/07 12:27:48;;;;;;;7.38;1.17;;;33.30;99.90;;;;;;5052277;28;20227;-66
2022/08/07 12:30:16;;;;;;;4.18;1.10;;;33.40;99.90;;;;;;5051873;28;20188;-65
2022/08/07 12:33:08;;;;;;;3.38;0.77;;;33.30;99.90;;;;;;5051969;28;20678;-65
2022/08/07 12:35:36;;;;;;;4.43;1.10;;;33.50;99.90;;;;;;5051975;28;20594;-66
2022/08/07 12:38:03;;;;;;;5.00;1.00;;;33.10;99.90;;;;;;5051871;28;20627;-67
2022/08/07 12:40:31;;;;;;;4.47;1.10;;;33.20;99.90;;;;;;5051625;28;20229;-65
2022/08/07 12:43:00;;;;;;;5.28;1.10;;;33.10;99.90;;;;;;5051693;28;20176;-65
2022/08/07 12:45:36;;;;;;;3.67;0.95;;;33.30;99.90;;;;;;5051795;28;20164;-64
2022/08/07 12:48:16;;;;;;;3.30;1.10;;;33.90;99.90;;;;;;5051919;28;20490;-65
2022/08/07 12:50:55;;;;;;;2.38;0.88;;;34.10;99.90;;;;;;5051582;28;20203;-66
2022/08/07 12:53:29;;;;;;;2.15;0.90;;;34.20;99.90;;;;;;5051496;28;20585;-66
2022/08/07 12:56:00;;;;;;;2.58;0.98;;;34.50;99.90;;;;;;5051665;28;20643;-65
2022/08/07 12:58:28;;;;;;;1.95;0.77;;;34.50;99.90;;;;;;5051542;28;20181;-66
2022/08/07 13:01:45;;;;;;;3.72;0.90;;;34.10;99.90;;;;;;5051500;28;20179;-66
2022/08/07 13:04:13;;;;;;;1.85;0.70;;;33.70;99.90;;;;;;5051142;28;20177;-65
2022/08/07 13:06:56;;;;;;;1.77;0.80;;;33.30;99.90;;;;;;5051472;28;20168;-65
2022/08/07 13:09:30;;;;;;;2.70;0.77;;;32.90;99.90;;;;;;5051276;28;20218;-65
2022/08/07 13:12:26;;;;;;;1.85;0.80;;;33.80;99.90;;;;;;5051122;28;20216;-65
2022/08/07 13:15:02;;;;;;;2.03;1.08;;;34.40;99.90;;;;;;5051194;28;20165;-66
2022/08/07 13:18:02;;;;;;;3.05;0.80;;;34.20;99.90;;;;;;5051276;28;20176;-66
2022/08/07 13:20:51;;;;;;;3.67;0.73;;;34.50;99.90;;;;;;5051154;28;20168;-66
2022/08/07 13:23:42;;;;;;;3.17;0.82;;;33.50;99.90;;;;;;5051121;28;20283;-66
2022/08/07 13:26:18;;;;;;;3.30;0.82;;;34.00;99.90;;;;;;5050217;28;20183;-66